sensor_id;sensor_type;location;lat;lon;timestamp;P1;durP1;ratioP1;P2;durP2;ratioP2
76863;SDS011;65834;52.364;9.754;2023-09-18T00:01:53;12.00;;;5.30;;
76863;SDS011;65834;52.364;9.754;2023-09-18T00:04:23;12.20;;;5.55;;
76863;SDS011;65834;52.364;9.754;2023-09-18T00:06:55;13.75;;;5.55;;
76863;SDS011;65834;52.364;9.754;2023-09-18T00:09:25;11.68;;;5.28;;
76863;SDS011;65834;52.364;9.754;2023-09-18T00:11:54;13.35;;;4.85;;
76863;SDS011;65834;52.364;9.754;2023-09-18T00:14:24;12.07;;;5.22;;
76863;SDS011;65834;52.364;9.754;2023-09-18T00:16:54;10.73;;;4.80;;
76863;SDS011;65834;52.364;9.754;2023-09-18T00:19:25;12.60;;;4.88;;
76863;SDS011;65834;52.364;9.754;2023-09-18T00:21:57;12.75;;;5.25;;
76863;SDS011;65834;52.364;9.754;2023-09-18T00:24:27;11.48;;;5.32;;
76863;SDS011;65834;52.364;9.754;2023-09-18T00:26:57;12.63;;;5.80;;
76863;SDS011;65834;52.364;9.754;2023-09-18T00:29:26;12.23;;;4.95;;
76863;SDS011;65834;52.364;9.754;2023-09-18T00:31:56;14.48;;;5.50;;
76863;SDS011;65834;52.364;9.754;2023-09-18T00:34:31;12.43;;;5.28;;
76863;SDS011;65834;52.364;9.754;2023-09-18T00:37:03;12.88;;;5.30;;
76863;SDS011;65834;52.364;9.754;2023-09-18T00:39:33;12.40;;;4.95;;
76863;SDS011;65834;52.364;9.754;2023-09-18T00:42:03;12.18;;;5.10;;
76863;SDS011;65834;52.364;9.754;2023-09-18T00:44:32;11.57;;;4.97;;
76863;SDS011;65834;52.364;9.754;2023-09-18T00:47:02;12.48;;;5.13;;
76863;SDS011;65834;52.364;9.754;2023-09-18T00:49:32;11.82;;;5.05;;
76863;SDS011;65834;52.364;9.754;2023-09-18T00:52:05;13.30;;;5.32;;
76863;SDS011;65834;52.364;9.754;2023-09-18T00:54:37;11.20;;;4.70;;
76863;SDS011;65834;52.364;9.754;2023-09-18T00:57:09;10.93;;;4.90;;
76863;SDS011;65834;52.364;9.754;2023-09-18T00:59:39;11.48;;;5.13;;
76863;SDS011;65834;52.364;9.754;2023-09-18T01:02:09;11.13;;;4.60;;
76863;SDS011;65834;52.364;9.754;2023-09-18T01:04:40;11.77;;;5.43;;
76863;SDS011;65834;52.364;9.754;2023-09-18T01:07:13;12.23;;;5.00;;
76863;SDS011;65834;52.364;9.754;2023-09-18T01:09:42;10.90;;;4.63;;
76863;SDS011;65834;52.364;9.754;2023-09-18T01:12:15;12.32;;;5.65;;
76863;SDS011;65834;52.364;9.754;2023-09-18T01:14:50;10.95;;;4.38;;
76863;SDS011;65834;52.364;9.754;2023-09-18T01:17:26;11.68;;;5.18;;
76863;SDS011;65834;52.364;9.754;2023-09-18T01:19:56;12.40;;;5.13;;
76863;SDS011;65834;52.364;9.754;2023-09-18T01:22:30;12.98;;;5.18;;
76863;SDS011;65834;52.364;9.754;2023-09-18T01:25:00;10.70;;;4.90;;
76863;SDS011;65834;52.364;9.754;2023-09-18T01:27:30;10.00;;;4.45;;
76863;SDS011;65834;52.364;9.754;2023-09-18T01:30:00;10.98;;;4.32;;
76863;SDS011;65834;52.364;9.754;2023-09-18T01:32:33;12.45;;;5.30;;
76863;SDS011;65834;52.364;9.754;2023-09-18T01:35:06;12.50;;;5.35;;
76863;SDS011;65834;52.364;9.754;2023-09-18T01:37:41;12.60;;;5.25;;
76863;SDS011;65834;52.364;9.754;2023-09-18T01:40:12;11.43;;;5.07;;
76863;SDS011;65834;52.364;9.754;2023-09-18T01:42:42;11.80;;;5.25;;
76863;SDS011;65834;52.364;9.754;2023-09-18T01:45:12;11.68;;;5.03;;
76863;SDS011;65834;52.364;9.754;2023-09-18T01:47:42;12.73;;;5.18;;
76863;SDS011;65834;52.364;9.754;2023-09-18T01:50:12;10.60;;;4.88;;
76863;SDS011;65834;52.364;9.754;2023-09-18T01:52:45;11.82;;;5.20;;
76863;SDS011;65834;52.364;9.754;2023-09-18T01:55:14;12.65;;;5.57;;
76863;SDS011;65834;52.364;9.754;2023-09-18T01:57:44;12.27;;;5.07;;
76863;SDS011;65834;52.364;9.754;2023-09-18T02:00:14;11.20;;;5.18;;
76863;SDS011;65834;52.364;9.754;2023-09-18T02:02:45;13.18;;;5.22;;
76863;SDS011;65834;52.364;9.754;2023-09-18T02:05:27;13.52;;;5.22;;
76863;SDS011;65834;52.364;9.754;2023-09-18T02:07:59;12.18;;;5.70;;
76863;SDS011;65834;52.364;9.754;2023-09-18T02:10:30;10.38;;;4.82;;
76863;SDS011;65834;52.364;9.754;2023-09-18T02:13:00;10.35;;;5.22;;
76863;SDS011;65834;52.364;9.754;2023-09-18T02:15:30;12.50;;;5.50;;
76863;SDS011;65834;52.364;9.754;2023-09-18T02:18:01;13.27;;;5.72;;
76863;SDS011;65834;52.364;9.754;2023-09-18T02:20:39;11.90;;;5.30;;
76863;SDS011;65834;52.364;9.754;2023-09-18T02:23:13;11.05;;;5.20;;
76863;SDS011;65834;52.364;9.754;2023-09-18T02:25:43;11.57;;;5.05;;
76863;SDS011;65834;52.364;9.754;2023-09-18T02:28:13;12.88;;;5.35;;
76863;SDS011;65834;52.364;9.754;2023-09-18T02:30:43;13.50;;;5.65;;
76863;SDS011;65834;52.364;9.754;2023-09-18T02:33:13;12.32;;;4.93;;
76863;SDS011;65834;52.364;9.754;2023-09-18T02:35:43;12.15;;;5.15;;
76863;SDS011;65834;52.364;9.754;2023-09-18T02:38:15;12.57;;;5.20;;
76863;SDS011;65834;52.364;9.754;2023-09-18T02:40:45;11.88;;;5.43;;
76863;SDS011;65834;52.364;9.754;2023-09-18T02:43:14;13.50;;;5.85;;
76863;SDS011;65834;52.364;9.754;2023-09-18T02:45:44;13.05;;;5.28;;
76863;SDS011;65834;52.364;9.754;2023-09-18T02:48:14;13.73;;;5.22;;
76863;SDS011;65834;52.364;9.754;2023-09-18T02:50:44;11.27;;;4.90;;
76863;SDS011;65834;52.364;9.754;2023-09-18T02:53:19;10.80;;;5.15;;
76863;SDS011;65834;52.364;9.754;2023-09-18T02:55:50;12.60;;;5.35;;
76863;SDS011;65834;52.364;9.754;2023-09-18T02:58:21;12.00;;;5.30;;
76863;SDS011;65834;52.364;9.754;2023-09-18T03:00:55;12.25;;;5.10;;
76863;SDS011;65834;52.364;9.754;2023-09-18T03:06:01;12.07;;;5.00;;
76863;SDS011;65834;52.364;9.754;2023-09-18T03:08:34;13.05;;;5.28;;
76863;SDS011;65834;52.364;9.754;2023-09-18T03:11:10;10.90;;;5.22;;
76863;SDS011;65834;52.364;9.754;2023-09-18T03:13:43;11.93;;;4.57;;
76863;SDS011;65834;52.364;9.754;2023-09-18T03:16:17;10.75;;;5.28;;
76863;SDS011;65834;52.364;9.754;2023-09-18T03:18:46;11.77;;;4.85;;
76863;SDS011;65834;52.364;9.754;2023-09-18T03:21:17;10.88;;;4.75;;
76863;SDS011;65834;52.364;9.754;2023-09-18T03:23:49;13.23;;;5.30;;
76863;SDS011;65834;52.364;9.754;2023-09-18T03:26:19;10.75;;;5.03;;
76863;SDS011;65834;52.364;9.754;2023-09-18T03:28:48;13.05;;;5.80;;
76863;SDS011;65834;52.364;9.754;2023-09-18T03:31:18;11.30;;;5.20;;
76863;SDS011;65834;52.364;9.754;2023-09-18T03:33:48;11.82;;;5.20;;
76863;SDS011;65834;52.364;9.754;2023-09-18T03:36:20;11.88;;;4.95;;
76863;SDS011;65834;52.364;9.754;2023-09-18T03:38:53;12.93;;;5.40;;
76863;SDS011;65834;52.364;9.754;2023-09-18T03:41:22;13.15;;;5.03;;
76863;SDS011;65834;52.364;9.754;2023-09-18T03:43:52;11.93;;;5.57;;
76863;SDS011;65834;52.364;9.754;2023-09-18T03:46:22;11.93;;;4.90;;
76863;SDS011;65834;52.364;9.754;2023-09-18T03:48:52;10.80;;;4.90;;
76863;SDS011;65834;52.364;9.754;2023-09-18T03:51:24;12.57;;;5.45;;
76863;SDS011;65834;52.364;9.754;2023-09-18T03:53:56;11.75;;;5.13;;
76863;SDS011;65834;52.364;9.754;2023-09-18T03:56:27;12.93;;;5.10;;
76863;SDS011;65834;52.364;9.754;2023-09-18T03:58:57;12.43;;;5.57;;
76863;SDS011;65834;52.364;9.754;2023-09-18T04:01:27;13.02;;;5.40;;
76863;SDS011;65834;52.364;9.754;2023-09-18T04:03:57;10.98;;;4.97;;
76863;SDS011;65834;52.364;9.754;2023-09-18T04:06:35;11.75;;;5.10;;
76863;SDS011;65834;52.364;9.754;2023-09-18T04:09:09;12.65;;;5.00;;
76863;SDS011;65834;52.364;9.754;2023-09-18T04:11:41;12.93;;;5.15;;
76863;SDS011;65834;52.364;9.754;2023-09-18T04:14:11;11.82;;;5.10;;
76863;SDS011;65834;52.364;9.754;2023-09-18T04:16:40;11.60;;;5.10;;
76863;SDS011;65834;52.364;9.754;2023-09-18T04:19:11;12.02;;;5.47;;
76863;SDS011;65834;52.364;9.754;2023-09-18T04:21:40;13.52;;;5.72;;
76863;SDS011;65834;52.364;9.754;2023-09-18T04:24:12;11.48;;;4.90;;
76863;SDS011;65834;52.364;9.754;2023-09-18T04:26:42;12.02;;;5.22;;
76863;SDS011;65834;52.364;9.754;2023-09-18T04:29:13;12.63;;;5.65;;
76863;SDS011;65834;52.364;9.754;2023-09-18T04:31:42;14.70;;;5.72;;
76863;SDS011;65834;52.364;9.754;2023-09-18T04:34:13;12.20;;;5.75;;
76863;SDS011;65834;52.364;9.754;2023-09-18T04:36:43;15.43;;;6.32;;
76863;SDS011;65834;52.364;9.754;2023-09-18T04:39:16;12.43;;;5.55;;
76863;SDS011;65834;52.364;9.754;2023-09-18T04:41:46;14.32;;;5.70;;
76863;SDS011;65834;52.364;9.754;2023-09-18T04:44:15;10.65;;;5.15;;
76863;SDS011;65834;52.364;9.754;2023-09-18T04:46:46;11.50;;;4.78;;
76863;SDS011;65834;52.364;9.754;2023-09-18T04:49:16;10.50;;;4.85;;
76863;SDS011;65834;52.364;9.754;2023-09-18T04:51:45;13.18;;;5.45;;
76863;SDS011;65834;52.364;9.754;2023-09-18T04:54:18;11.65;;;5.10;;
76863;SDS011;65834;52.364;9.754;2023-09-18T04:56:48;15.52;;;7.00;;
76863;SDS011;65834;52.364;9.754;2023-09-18T04:59:19;12.75;;;5.05;;
76863;SDS011;65834;52.364;9.754;2023-09-18T05:01:49;14.27;;;5.90;;
76863;SDS011;65834;52.364;9.754;2023-09-18T05:04:18;13.18;;;5.30;;
76863;SDS011;65834;52.364;9.754;2023-09-18T05:06:48;11.43;;;5.30;;
76863;SDS011;65834;52.364;9.754;2023-09-18T05:09:20;11.75;;;5.38;;
76863;SDS011;65834;52.364;9.754;2023-09-18T05:11:50;13.68;;;6.05;;
76863;SDS011;65834;52.364;9.754;2023-09-18T05:14:20;10.98;;;4.45;;
76863;SDS011;65834;52.364;9.754;2023-09-18T05:16:49;11.07;;;5.22;;
76863;SDS011;65834;52.364;9.754;2023-09-18T05:19:19;13.13;;;5.28;;
76863;SDS011;65834;52.364;9.754;2023-09-18T05:21:49;12.18;;;5.95;;
76863;SDS011;65834;52.364;9.754;2023-09-18T05:24:21;12.43;;;5.32;;
76863;SDS011;65834;52.364;9.754;2023-09-18T05:26:53;12.13;;;4.68;;
76863;SDS011;65834;52.364;9.754;2023-09-18T05:29:23;11.38;;;5.00;;
76863;SDS011;65834;52.364;9.754;2023-09-18T05:31:53;11.18;;;4.85;;
76863;SDS011;65834;52.364;9.754;2023-09-18T05:34:22;11.88;;;4.80;;
76863;SDS011;65834;52.364;9.754;2023-09-18T05:36:52;12.30;;;5.22;;
76863;SDS011;65834;52.364;9.754;2023-09-18T05:39:24;14.25;;;5.63;;
76863;SDS011;65834;52.364;9.754;2023-09-18T05:41:54;13.38;;;5.32;;
76863;SDS011;65834;52.364;9.754;2023-09-18T05:44:24;12.20;;;4.88;;
76863;SDS011;65834;52.364;9.754;2023-09-18T05:46:54;13.73;;;5.15;;
76863;SDS011;65834;52.364;9.754;2023-09-18T05:49:23;12.50;;;5.20;;
76863;SDS011;65834;52.364;9.754;2023-09-18T05:51:53;11.52;;;4.88;;
76863;SDS011;65834;52.364;9.754;2023-09-18T05:54:25;13.05;;;5.70;;
76863;SDS011;65834;52.364;9.754;2023-09-18T05:56:55;11.77;;;4.50;;
76863;SDS011;65834;52.364;9.754;2023-09-18T05:59:24;13.93;;;6.00;;
76863;SDS011;65834;52.364;9.754;2023-09-18T06:01:54;12.98;;;5.13;;
76863;SDS011;65834;52.364;9.754;2023-09-18T06:04:24;12.80;;;5.43;;
76863;SDS011;65834;52.364;9.754;2023-09-18T06:06:54;12.27;;;5.10;;
76863;SDS011;65834;52.364;9.754;2023-09-18T06:09:26;14.75;;;5.65;;
76863;SDS011;65834;52.364;9.754;2023-09-18T06:11:56;12.65;;;5.45;;
76863;SDS011;65834;52.364;9.754;2023-09-18T06:14:26;11.68;;;5.20;;
76863;SDS011;65834;52.364;9.754;2023-09-18T06:16:55;12.63;;;5.53;;
76863;SDS011;65834;52.364;9.754;2023-09-18T06:19:25;12.15;;;5.10;;
76863;SDS011;65834;52.364;9.754;2023-09-18T06:21:54;12.50;;;5.13;;
76863;SDS011;65834;52.364;9.754;2023-09-18T06:24:27;10.00;;;4.53;;
76863;SDS011;65834;52.364;9.754;2023-09-18T06:26:56;12.18;;;5.30;;
76863;SDS011;65834;52.364;9.754;2023-09-18T06:29:26;13.98;;;6.22;;
76863;SDS011;65834;52.364;9.754;2023-09-18T06:31:56;11.57;;;4.68;;
76863;SDS011;65834;52.364;9.754;2023-09-18T06:34:27;11.48;;;5.03;;
76863;SDS011;65834;52.364;9.754;2023-09-18T06:36:57;10.65;;;4.78;;
76863;SDS011;65834;52.364;9.754;2023-09-18T06:42:02;11.85;;;4.93;;
76863;SDS011;65834;52.364;9.754;2023-09-18T06:44:32;12.02;;;5.15;;
76863;SDS011;65834;52.364;9.754;2023-09-18T06:47:02;11.23;;;4.78;;
76863;SDS011;65834;52.364;9.754;2023-09-18T06:49:32;15.75;;;5.32;;
76863;SDS011;65834;52.364;9.754;2023-09-18T06:52:02;11.45;;;4.95;;
76863;SDS011;65834;52.364;9.754;2023-09-18T06:54:35;10.20;;;4.53;;
76863;SDS011;65834;52.364;9.754;2023-09-18T06:57:05;12.63;;;5.32;;
76863;SDS011;65834;52.364;9.754;2023-09-18T06:59:35;13.07;;;5.22;;
76863;SDS011;65834;52.364;9.754;2023-09-18T07:02:05;10.75;;;5.03;;
76863;SDS011;65834;52.364;9.754;2023-09-18T07:04:35;12.38;;;5.03;;
76863;SDS011;65834;52.364;9.754;2023-09-18T07:07:12;10.65;;;4.60;;
76863;SDS011;65834;52.364;9.754;2023-09-18T07:09:44;12.02;;;5.07;;
76863;SDS011;65834;52.364;9.754;2023-09-18T07:12:30;11.82;;;5.00;;
76863;SDS011;65834;52.364;9.754;2023-09-18T07:15:00;11.75;;;5.22;;
76863;SDS011;65834;52.364;9.754;2023-09-18T07:17:32;10.95;;;4.75;;
76863;SDS011;65834;52.364;9.754;2023-09-18T07:20:03;10.57;;;4.57;;
76863;SDS011;65834;52.364;9.754;2023-09-18T07:22:45;11.40;;;5.03;;
76863;SDS011;65834;52.364;9.754;2023-09-18T07:25:19;10.70;;;4.70;;
76863;SDS011;65834;52.364;9.754;2023-09-18T07:27:49;12.90;;;5.35;;
76863;SDS011;65834;52.364;9.754;2023-09-18T07:30:18;10.30;;;4.82;;
76863;SDS011;65834;52.364;9.754;2023-09-18T07:32:48;10.45;;;4.45;;
76863;SDS011;65834;52.364;9.754;2023-09-18T07:35:18;11.82;;;5.03;;
76863;SDS011;65834;52.364;9.754;2023-09-18T07:37:49;12.93;;;5.10;;
76863;SDS011;65834;52.364;9.754;2023-09-18T07:40:21;13.10;;;4.88;;
76863;SDS011;65834;52.364;9.754;2023-09-18T07:42:50;11.48;;;4.95;;
76863;SDS011;65834;52.364;9.754;2023-09-18T07:45:20;11.45;;;4.55;;
76863;SDS011;65834;52.364;9.754;2023-09-18T07:47:51;12.82;;;4.70;;
76863;SDS011;65834;52.364;9.754;2023-09-18T07:50:21;10.43;;;4.68;;
76863;SDS011;65834;52.364;9.754;2023-09-18T07:52:51;10.45;;;4.50;;
76863;SDS011;65834;52.364;9.754;2023-09-18T07:55:23;11.70;;;4.78;;
76863;SDS011;65834;52.364;9.754;2023-09-18T07:57:53;12.23;;;4.72;;
76863;SDS011;65834;52.364;9.754;2023-09-18T08:00:23;11.95;;;5.03;;
76863;SDS011;65834;52.364;9.754;2023-09-18T08:02:53;11.13;;;4.55;;
76863;SDS011;65834;52.364;9.754;2023-09-18T08:05:25;10.38;;;4.45;;
76863;SDS011;65834;52.364;9.754;2023-09-18T08:07:58;11.93;;;4.68;;
76863;SDS011;65834;52.364;9.754;2023-09-18T08:10:34;11.57;;;4.82;;
76863;SDS011;65834;52.364;9.754;2023-09-18T08:13:07;11.43;;;4.82;;
76863;SDS011;65834;52.364;9.754;2023-09-18T08:15:36;11.00;;;4.93;;
76863;SDS011;65834;52.364;9.754;2023-09-18T08:18:06;12.55;;;4.88;;
76863;SDS011;65834;52.364;9.754;2023-09-18T08:20:39;12.00;;;4.63;;
76863;SDS011;65834;52.364;9.754;2023-09-18T08:23:09;10.38;;;4.53;;
76863;SDS011;65834;52.364;9.754;2023-09-18T08:25:42;12.13;;;4.60;;
76863;SDS011;65834;52.364;9.754;2023-09-18T08:28:11;11.23;;;5.22;;
76863;SDS011;65834;52.364;9.754;2023-09-18T08:30:41;11.95;;;5.30;;
76863;SDS011;65834;52.364;9.754;2023-09-18T08:33:14;10.60;;;4.90;;
76863;SDS011;65834;52.364;9.754;2023-09-18T08:35:43;10.80;;;5.10;;
76863;SDS011;65834;52.364;9.754;2023-09-18T08:38:13;12.15;;;4.80;;
76863;SDS011;65834;52.364;9.754;2023-09-18T08:40:46;11.75;;;5.00;;
76863;SDS011;65834;52.364;9.754;2023-09-18T08:43:17;12.55;;;5.00;;
76863;SDS011;65834;52.364;9.754;2023-09-18T08:45:50;9.93;;;4.13;;
76863;SDS011;65834;52.364;9.754;2023-09-18T08:48:23;13.60;;;4.50;;
76863;SDS011;65834;52.364;9.754;2023-09-18T08:50:54;12.38;;;4.45;;
76863;SDS011;65834;52.364;9.754;2023-09-18T08:53:24;13.15;;;4.00;;
76863;SDS011;65834;52.364;9.754;2023-09-18T08:55:56;10.45;;;4.22;;
76863;SDS011;65834;52.364;9.754;2023-09-18T08:58:29;13.07;;;4.20;;
76863;SDS011;65834;52.364;9.754;2023-09-18T09:03:32;12.55;;;3.90;;
76863;SDS011;65834;52.364;9.754;2023-09-18T09:06:03;9.40;;;3.30;;
76863;SDS011;65834;52.364;9.754;2023-09-18T09:08:39;15.13;;;4.05;;
76863;SDS011;65834;52.364;9.754;2023-09-18T09:11:11;11.50;;;4.22;;
76863;SDS011;65834;52.364;9.754;2023-09-18T09:13:41;11.35;;;3.70;;
76863;SDS011;65834;52.364;9.754;2023-09-18T09:16:12;11.02;;;4.18;;
76863;SDS011;65834;52.364;9.754;2023-09-18T09:18:47;11.50;;;3.63;;
76863;SDS011;65834;52.364;9.754;2023-09-18T09:21:19;11.23;;;3.78;;
76863;SDS011;65834;52.364;9.754;2023-09-18T09:23:49;12.82;;;4.03;;
76863;SDS011;65834;52.364;9.754;2023-09-18T09:26:23;11.68;;;3.58;;
76863;SDS011;65834;52.364;9.754;2023-09-18T09:28:52;13.85;;;4.22;;
76863;SDS011;65834;52.364;9.754;2023-09-18T09:31:23;10.05;;;3.42;;
76863;SDS011;65834;52.364;9.754;2023-09-18T09:33:56;13.90;;;3.70;;
76863;SDS011;65834;52.364;9.754;2023-09-18T09:36:29;10.15;;;3.03;;
76863;SDS011;65834;52.364;9.754;2023-09-18T09:38:59;9.98;;;3.58;;
76863;SDS011;65834;52.364;9.754;2023-09-18T09:41:34;10.90;;;3.50;;
76863;SDS011;65834;52.364;9.754;2023-09-18T09:44:04;10.95;;;3.22;;
76863;SDS011;65834;52.364;9.754;2023-09-18T09:46:34;9.60;;;3.20;;
76863;SDS011;65834;52.364;9.754;2023-09-18T09:49:04;11.48;;;3.33;;
76863;SDS011;65834;52.364;9.754;2023-09-18T09:51:34;10.43;;;2.78;;
76863;SDS011;65834;52.364;9.754;2023-09-18T09:54:03;12.27;;;3.55;;
76863;SDS011;65834;52.364;9.754;2023-09-18T09:56:43;10.88;;;3.10;;
76863;SDS011;65834;52.364;9.754;2023-09-18T09:59:15;9.73;;;3.38;;
76863;SDS011;65834;52.364;9.754;2023-09-18T10:01:46;8.85;;;2.92;;
76863;SDS011;65834;52.364;9.754;2023-09-18T10:04:17;8.10;;;2.80;;
76863;SDS011;65834;52.364;9.754;2023-09-18T10:06:51;10.68;;;2.97;;
76863;SDS011;65834;52.364;9.754;2023-09-18T10:09:22;11.15;;;3.10;;
76863;SDS011;65834;52.364;9.754;2023-09-18T10:11:55;10.02;;;3.22;;
76863;SDS011;65834;52.364;9.754;2023-09-18T10:14:29;11.32;;;2.90;;
76863;SDS011;65834;52.364;9.754;2023-09-18T10:17:17;10.95;;;2.97;;
76863;SDS011;65834;52.364;9.754;2023-09-18T10:19:49;10.53;;;2.77;;
76863;SDS011;65834;52.364;9.754;2023-09-18T10:22:29;9.32;;;2.92;;
76863;SDS011;65834;52.364;9.754;2023-09-18T10:25:10;9.27;;;2.75;;
76863;SDS011;65834;52.364;9.754;2023-09-18T10:27:48;11.52;;;2.75;;
76863;SDS011;65834;52.364;9.754;2023-09-18T10:30:20;9.75;;;3.28;;
76863;SDS011;65834;52.364;9.754;2023-09-18T10:32:51;11.38;;;3.15;;
76863;SDS011;65834;52.364;9.754;2023-09-18T10:35:21;8.48;;;2.83;;
76863;SDS011;65834;52.364;9.754;2023-09-18T10:37:52;10.00;;;3.35;;
76863;SDS011;65834;52.364;9.754;2023-09-18T10:40:23;8.02;;;2.72;;
76863;SDS011;65834;52.364;9.754;2023-09-18T10:42:57;10.60;;;2.85;;
76863;SDS011;65834;52.364;9.754;2023-09-18T10:45:28;11.25;;;3.70;;
76863;SDS011;65834;52.364;9.754;2023-09-18T10:47:58;8.80;;;2.85;;
76863;SDS011;65834;52.364;9.754;2023-09-18T10:50:29;10.82;;;3.10;;
76863;SDS011;65834;52.364;9.754;2023-09-18T10:52:59;10.82;;;3.40;;
76863;SDS011;65834;52.364;9.754;2023-09-18T10:55:29;9.60;;;3.58;;
76863;SDS011;65834;52.364;9.754;2023-09-18T10:58:03;8.98;;;3.00;;
76863;SDS011;65834;52.364;9.754;2023-09-18T11:03:11;9.98;;;2.72;;
76863;SDS011;65834;52.364;9.754;2023-09-18T11:05:44;8.75;;;2.40;;
76863;SDS011;65834;52.364;9.754;2023-09-18T11:35:12;10.82;;;2.70;;
76863;SDS011;65834;52.364;9.754;2023-09-18T11:37:44;9.45;;;2.80;;
76863;SDS011;65834;52.364;9.754;2023-09-18T11:45:53;9.63;;;2.70;;
76863;SDS011;65834;52.364;9.754;2023-09-18T11:48:27;7.35;;;2.33;;
76863;SDS011;65834;52.364;9.754;2023-09-18T11:50:59;8.95;;;2.75;;
76863;SDS011;65834;52.364;9.754;2023-09-18T11:53:35;5.65;;;2.67;;
76863;SDS011;65834;52.364;9.754;2023-09-18T11:56:10;8.20;;;2.50;;
76863;SDS011;65834;52.364;9.754;2023-09-18T11:58:44;9.15;;;2.70;;
76863;SDS011;65834;52.364;9.754;2023-09-18T12:01:15;9.82;;;2.50;;
76863;SDS011;65834;52.364;9.754;2023-09-18T12:03:52;10.27;;;3.00;;
76863;SDS011;65834;52.364;9.754;2023-09-18T12:06:22;5.70;;;1.95;;
76863;SDS011;65834;52.364;9.754;2023-09-18T12:08:52;8.05;;;2.63;;
76863;SDS011;65834;52.364;9.754;2023-09-18T12:11:23;12.40;;;2.50;;
76863;SDS011;65834;52.364;9.754;2023-09-18T12:13:53;5.07;;;2.22;;
76863;SDS011;65834;52.364;9.754;2023-09-18T12:16:24;7.47;;;2.20;;
76863;SDS011;65834;52.364;9.754;2023-09-18T12:18:59;7.45;;;2.50;;
76863;SDS011;65834;52.364;9.754;2023-09-18T12:21:30;5.20;;;1.88;;
76863;SDS011;65834;52.364;9.754;2023-09-18T12:24:00;10.43;;;2.08;;
76863;SDS011;65834;52.364;9.754;2023-09-18T12:26:31;5.78;;;2.15;;
76863;SDS011;65834;52.364;9.754;2023-09-18T12:29:02;7.63;;;2.40;;
76863;SDS011;65834;52.364;9.754;2023-09-18T12:31:33;5.93;;;1.90;;
76863;SDS011;65834;52.364;9.754;2023-09-18T12:34:06;6.65;;;2.20;;
76863;SDS011;65834;52.364;9.754;2023-09-18T12:36:43;6.85;;;1.90;;
76863;SDS011;65834;52.364;9.754;2023-09-18T12:39:13;7.80;;;2.22;;
76863;SDS011;65834;52.364;9.754;2023-09-18T12:41:43;6.93;;;2.40;;
76863;SDS011;65834;52.364;9.754;2023-09-18T12:44:14;5.75;;;1.73;;
76863;SDS011;65834;52.364;9.754;2023-09-18T12:46:44;8.73;;;1.88;;
76863;SDS011;65834;52.364;9.754;2023-09-18T12:49:20;5.80;;;2.10;;
76863;SDS011;65834;52.364;9.754;2023-09-18T12:51:55;6.57;;;2.35;;
76863;SDS011;65834;52.364;9.754;2023-09-18T12:54:38;6.53;;;2.03;;
76863;SDS011;65834;52.364;9.754;2023-09-18T12:57:09;4.00;;;1.63;;
76863;SDS011;65834;52.364;9.754;2023-09-18T12:59:39;5.72;;;1.70;;
76863;SDS011;65834;52.364;9.754;2023-09-18T13:02:12;5.57;;;1.73;;
76863;SDS011;65834;52.364;9.754;2023-09-18T13:04:50;5.00;;;1.40;;
76863;SDS011;65834;52.364;9.754;2023-09-18T13:07:21;5.03;;;1.88;;
76863;SDS011;65834;52.364;9.754;2023-09-18T13:15:09;5.80;;;1.60;;
76863;SDS011;65834;52.364;9.754;2023-09-18T13:17:40;5.28;;;1.63;;
76863;SDS011;65834;52.364;9.754;2023-09-18T13:20:17;3.85;;;1.52;;
76863;SDS011;65834;52.364;9.754;2023-09-18T13:22:51;3.72;;;1.40;;
76863;SDS011;65834;52.364;9.754;2023-09-18T13:25:22;5.22;;;1.52;;
76863;SDS011;65834;52.364;9.754;2023-09-18T13:27:53;6.75;;;1.90;;
76863;SDS011;65834;52.364;9.754;2023-09-18T13:30:23;7.22;;;1.77;;
76863;SDS011;65834;52.364;9.754;2023-09-18T13:33:00;5.53;;;1.65;;
76863;SDS011;65834;52.364;9.754;2023-09-18T13:35:36;5.45;;;1.58;;
76863;SDS011;65834;52.364;9.754;2023-09-18T13:38:07;6.82;;;2.10;;
76863;SDS011;65834;52.364;9.754;2023-09-18T13:40:37;6.75;;;1.77;;
76863;SDS011;65834;52.364;9.754;2023-09-18T13:43:08;5.20;;;1.83;;
76863;SDS011;65834;52.364;9.754;2023-09-18T13:45:38;5.25;;;1.85;;
76863;SDS011;65834;52.364;9.754;2023-09-18T13:48:10;5.22;;;1.83;;
76863;SDS011;65834;52.364;9.754;2023-09-18T13:50:44;6.93;;;1.85;;
76863;SDS011;65834;52.364;9.754;2023-09-18T13:53:15;8.95;;;2.50;;
76863;SDS011;65834;52.364;9.754;2023-09-18T13:55:44;7.15;;;2.15;;
76863;SDS011;65834;52.364;9.754;2023-09-18T13:58:14;6.28;;;2.00;;
76863;SDS011;65834;52.364;9.754;2023-09-18T14:00:43;7.35;;;2.17;;
76863;SDS011;65834;52.364;9.754;2023-09-18T14:03:13;8.10;;;2.00;;
76863;SDS011;65834;52.364;9.754;2023-09-18T14:05:48;6.93;;;2.13;;
76863;SDS011;65834;52.364;9.754;2023-09-18T14:10:47;5.18;;;1.90;;
76863;SDS011;65834;52.364;9.754;2023-09-18T14:13:16;8.95;;;2.38;;
76863;SDS011;65834;52.364;9.754;2023-09-18T14:15:46;7.03;;;2.28;;
76863;SDS011;65834;52.364;9.754;2023-09-18T14:18:18;6.50;;;2.17;;
76863;SDS011;65834;52.364;9.754;2023-09-18T14:20:50;8.23;;;2.42;;
76863;SDS011;65834;52.364;9.754;2023-09-18T14:23:20;8.07;;;2.30;;
76863;SDS011;65834;52.364;9.754;2023-09-18T14:25:49;6.35;;;2.13;;
76863;SDS011;65834;52.364;9.754;2023-09-18T14:28:19;7.25;;;2.53;;
76863;SDS011;65834;52.364;9.754;2023-09-18T14:30:49;8.55;;;2.53;;
76863;SDS011;65834;52.364;9.754;2023-09-18T14:33:19;7.50;;;2.60;;
76863;SDS011;65834;52.364;9.754;2023-09-18T14:35:51;7.70;;;2.45;;
76863;SDS011;65834;52.364;9.754;2023-09-18T14:38:21;6.80;;;2.28;;
76863;SDS011;65834;52.364;9.754;2023-09-18T14:40:51;8.25;;;2.47;;
76863;SDS011;65834;52.364;9.754;2023-09-18T14:43:26;6.93;;;1.85;;
76863;SDS011;65834;52.364;9.754;2023-09-18T14:45:56;6.30;;;2.40;;
76863;SDS011;65834;52.364;9.754;2023-09-18T14:48:25;7.70;;;2.03;;
76863;SDS011;65834;52.364;9.754;2023-09-18T14:50:59;11.40;;;2.50;;
76863;SDS011;65834;52.364;9.754;2023-09-18T14:55:59;6.00;;;2.15;;
76863;SDS011;65834;52.364;9.754;2023-09-18T14:58:39;5.82;;;2.17;;
76863;SDS011;65834;52.364;9.754;2023-09-18T15:01:10;7.15;;;2.42;;
76863;SDS011;65834;52.364;9.754;2023-09-18T15:03:41;5.93;;;2.40;;
76863;SDS011;65834;52.364;9.754;2023-09-18T15:06:14;5.13;;;2.03;;
76863;SDS011;65834;52.364;9.754;2023-09-18T15:08:43;6.53;;;2.03;;
76863;SDS011;65834;52.364;9.754;2023-09-18T15:11:13;8.48;;;2.40;;
76863;SDS011;65834;52.364;9.754;2023-09-18T15:13:44;6.65;;;2.10;;
76863;SDS011;65834;52.364;9.754;2023-09-18T15:16:14;7.95;;;2.58;;
76863;SDS011;65834;52.364;9.754;2023-09-18T15:18:43;6.63;;;1.95;;
76863;SDS011;65834;52.364;9.754;2023-09-18T15:21:16;7.45;;;2.38;;
76863;SDS011;65834;52.364;9.754;2023-09-18T15:23:47;7.90;;;2.00;;
76863;SDS011;65834;52.364;9.754;2023-09-18T15:26:18;5.80;;;2.33;;
76863;SDS011;65834;52.364;9.754;2023-09-18T15:28:47;7.47;;;2.03;;
76863;SDS011;65834;52.364;9.754;2023-09-18T15:31:17;4.43;;;1.98;;
76863;SDS011;65834;52.364;9.754;2023-09-18T15:33:47;4.93;;;1.95;;
76863;SDS011;65834;52.364;9.754;2023-09-18T15:36:19;8.13;;;2.25;;
76863;SDS011;65834;52.364;9.754;2023-09-18T15:38:49;6.70;;;2.13;;
76863;SDS011;65834;52.364;9.754;2023-09-18T15:41:19;10.30;;;3.20;;
76863;SDS011;65834;52.364;9.754;2023-09-18T15:43:49;7.07;;;2.17;;
76863;SDS011;65834;52.364;9.754;2023-09-18T15:46:19;8.65;;;2.20;;
76863;SDS011;65834;52.364;9.754;2023-09-18T15:48:48;6.97;;;2.03;;
76863;SDS011;65834;52.364;9.754;2023-09-18T15:51:21;8.57;;;2.30;;
76863;SDS011;65834;52.364;9.754;2023-09-18T15:53:51;7.57;;;2.10;;
76863;SDS011;65834;52.364;9.754;2023-09-18T15:56:23;5.20;;;1.90;;